Time;durP1;ratioP1;P1;durP2;ratioP2;P2;SDS_P1;SDS_P2;PMS_P1;PMS_P2;Temp;Humidity;BMP_temperature;BMP_pressure;BME280_temperature;BME280_humidity;BME280_pressure;Samples;Min_cycle;Max_cycle;Signal;HPM_P1;HPM_P2
2021/06/13 00:02:35;;;;;;;4.75;2.20;;;25.20;46.50;;;;;;8326879;28;20029;-54
2021/06/13 00:06:36;;;;;;;3.50;2.30;;;25.20;46.70;;;;;;8326278;28;20036;-55
2021/06/13 00:10:36;;;;;;;6.32;2.40;;;25.20;46.50;;;;;;8326619;28;20411;-55
2021/06/13 00:14:37;;;;;;;2.40;2.20;;;25.20;46.40;;;;;;8321669;28;20056;-56
2021/06/13 00:18:38;;;;;;;2.90;2.20;;;25.20;46.30;;;;;;8326818;28;20339;-54
2021/06/13 00:22:39;;;;;;;3.05;2.15;;;25.20;46.50;;;;;;8323888;28;20040;-55
2021/06/13 00:26:39;;;;;;;3.42;2.00;;;25.20;46.50;;;;;;8327447;28;20025;-56
2021/06/13 00:30:40;;;;;;;3.20;2.53;;;25.20;47.20;;;;;;8324747;28;20032;-56
2021/06/13 00:34:41;;;;;;;5.75;2.30;;;25.20;47.10;;;;;;8326010;28;20393;-56
2021/06/13 00:38:41;;;;;;;2.88;2.38;;;25.20;47.00;;;;;;8326591;28;20034;-55
2021/06/13 00:42:44;;;;;;;3.30;2.13;;;25.10;46.60;;;;;;8333207;28;20038;-55
2021/06/13 00:46:45;;;;;;;3.72;1.88;;;25.10;46.20;;;;;;8332496;28;20083;-55
2021/06/13 00:50:48;;;;;;;;;;;25.10;46.00;;;;;;8333191;28;20014;-56
2021/06/13 00:54:48;;;;;;;5.18;2.22;;;25.10;46.00;;;;;;8331781;28;19917;-56
2021/06/13 00:58:49;;;;;;;4.05;2.17;;;25.10;45.90;;;;;;8331736;28;20474;-55
2021/06/13 01:02:50;;;;;;;2.47;2.10;;;25.10;45.80;;;;;;8331566;28;20045;-56
2021/06/13 01:07:04;;;;;;;2.30;2.10;;;25.00;45.70;;;;;;8331927;28;20047;-56
2021/06/13 01:11:28;;;;;;;4.72;2.50;;;25.00;45.50;;;;;;8331480;28;20029;-56
2021/06/13 01:15:37;;;;;;;4.15;2.35;;;25.00;45.50;;;;;;8331188;28;20061;-55
2021/06/13 01:20:13;;;;;;;2.30;2.10;;;25.00;45.50;;;;;;8331289;28;20513;-56
2021/06/13 01:24:41;;;;;;;2.40;2.10;;;25.00;45.40;;;;;;8331358;28;20046;-55
2021/06/13 01:28:57;;;;;;;3.30;2.20;;;25.00;45.30;;;;;;8331140;28;20503;-55
2021/06/13 01:33:03;;;;;;;2.47;2.28;;;25.00;45.30;;;;;;8331122;28;20033;-55
2021/06/13 01:37:10;;;;;;;3.78;2.47;;;24.90;45.20;;;;;;8330763;28;20369;-55
2021/06/13 01:41:15;;;;;;;2.25;2.05;;;24.90;45.20;;;;;;8330850;28;20036;-55
2021/06/13 01:45:21;;;;;;;3.15;2.42;;;24.90;45.20;;;;;;8330391;28;20119;-54
2021/06/13 01:49:23;;;;;;;2.90;2.60;;;24.90;45.10;;;;;;8330394;28;20705;-53
2021/06/13 01:53:24;;;;;;;3.10;2.50;;;24.90;45.10;;;;;;8330055;28;20025;-55
2021/06/13 01:57:27;;;;;;;3.00;2.70;;;24.90;45.10;;;;;;8330280;28;20421;-55
2021/06/13 02:01:29;;;;;;;2.22;2.00;;;24.80;45.00;;;;;;8329885;28;20029;-55
2021/06/13 02:05:33;;;;;;;2.42;2.22;;;24.80;45.00;;;;;;8330460;28;20521;-55
2021/06/13 02:09:34;;;;;;;2.63;2.30;;;24.80;45.00;;;;;;8329483;28;20060;-55
2021/06/13 02:13:37;;;;;;;3.53;2.65;;;24.80;45.00;;;;;;8330072;28;20033;-55
2021/06/13 02:17:43;;;;;;;3.35;1.90;;;24.80;45.00;;;;;;8329518;28;20056;-55
2021/06/13 02:21:45;;;;;;;2.97;2.58;;;24.80;45.00;;;;;;8329529;28;20060;-55
2021/06/13 02:25:46;;;;;;;2.92;2.40;;;24.80;44.90;;;;;;8330108;28;20497;-56
2021/06/13 02:29:46;;;;;;;3.15;2.55;;;24.80;44.90;;;;;;8329107;28;20540;-56
2021/06/13 02:33:47;;;;;;;3.27;2.13;;;24.70;44.80;;;;;;8328836;28;20053;-56
2021/06/13 02:37:49;;;;;;;3.83;2.67;;;24.80;44.90;;;;;;8328818;28;20748;-55
2021/06/13 02:41:51;;;;;;;2.47;2.28;;;24.70;45.30;;;;;;8328928;28;20025;-56
2021/06/13 02:45:52;;;;;;;4.65;2.35;;;24.70;44.80;;;;;;8328604;28;20496;-56
2021/06/13 02:49:52;;;;;;;;;;;24.70;44.80;;;;;;8329156;28;20026;-55
2021/06/13 02:53:56;;;;;;;4.73;2.50;;;24.70;44.80;;;;;;8328325;28;20193;-56
2021/06/13 02:58:05;;;;;;;3.00;2.50;;;24.60;44.80;;;;;;8328505;28;20014;-56
2021/06/13 03:02:09;;;;;;;2.40;2.20;;;24.70;44.80;;;;;;8327901;28;20363;-56
2021/06/13 03:06:15;;;;;;;4.47;2.75;;;24.70;44.80;;;;;;8326664;28;20090;-55
2021/06/13 03:10:17;;;;;;;2.60;2.40;;;24.70;44.80;;;;;;8327776;28;20363;-56
2021/06/13 03:14:18;;;;;;;2.30;2.10;;;24.60;44.70;;;;;;8327456;28;20080;-55
2021/06/13 03:18:19;;;;;;;3.25;2.50;;;24.60;44.70;;;;;;8327928;28;20032;-56
2021/06/13 03:22:20;;;;;;;2.60;2.40;;;24.60;44.70;;;;;;8327823;28;20033;-56
2021/06/13 03:26:22;;;;;;;2.33;2.13;;;24.60;44.70;;;;;;8327731;28;20021;-56
2021/06/13 03:30:23;;;;;;;3.42;2.40;;;24.60;44.70;;;;;;8328020;28;20492;-56
2021/06/13 03:34:24;;;;;;;;;;;24.60;44.70;;;;;;8327845;28;20071;-56
2021/06/13 03:38:28;;;;;;;3.00;2.63;;;24.60;44.70;;;;;;8327088;28;19948;-56
2021/06/13 03:42:30;;;;;;;2.70;2.20;;;24.60;44.70;;;;;;8327066;28;20517;-56
2021/06/13 03:46:30;;;;;;;4.72;2.85;;;24.60;44.70;;;;;;8326968;28;20445;-56
2021/06/13 03:50:32;;;;;;;3.05;2.70;;;24.50;44.60;;;;;;8327300;28;20032;-56
2021/06/13 03:54:33;;;;;;;2.40;2.20;;;24.50;44.60;;;;;;8326397;28;20037;-56
2021/06/13 03:58:33;;;;;;;;;;;24.50;44.60;;;;;;8327506;28;20358;-56
2021/06/13 04:02:37;;;;;;;3.53;2.43;;;24.50;44.60;;;;;;8326722;28;19913;-56
2021/06/13 04:06:40;;;;;;;3.60;2.40;;;24.50;44.70;;;;;;8326996;28;20025;-56
2021/06/13 04:10:46;;;;;;;2.70;2.35;;;24.50;44.60;;;;;;8327100;28;20091;-56
2021/06/13 04:14:48;;;;;;;3.17;2.67;;;24.50;44.60;;;;;;8328731;28;20175;-56
2021/06/13 04:18:48;;;;;;;;;;;24.50;44.60;;;;;;8334056;28;20026;-56
2021/06/13 04:22:50;;;;;;;2.77;2.20;;;24.50;44.60;;;;;;8333574;28;19944;-56
2021/06/13 04:26:54;;;;;;;2.50;2.30;;;24.50;44.60;;;;;;8333493;28;20052;-56
2021/06/13 04:31:05;;;;;;;2.78;2.40;;;24.50;44.60;;;;;;8332969;28;20086;-56
2021/06/13 04:35:06;;;;;;;2.65;2.45;;;24.50;44.60;;;;;;8332522;28;20033;-55
2021/06/13 04:39:07;;;;;;;4.00;2.65;;;24.50;44.60;;;;;;8332492;28;20037;-56
2021/06/13 04:43:07;;;;;;;5.63;2.50;;;24.40;44.60;;;;;;8332514;28;20026;-55
2021/06/13 04:47:10;;;;;;;3.13;2.33;;;24.40;44.50;;;;;;8332179;28;20037;-56
2021/06/13 04:51:11;;;;;;;3.38;2.30;;;24.40;44.50;;;;;;8332102;28;20267;-56
2021/06/13 04:55:19;;;;;;;;;;;24.40;44.60;;;;;;8332382;28;20123;-56
2021/06/13 04:59:20;;;;;;;4.05;2.20;;;24.40;44.60;;;;;;8331774;28;19905;-56
2021/06/13 05:03:21;;;;;;;3.42;2.58;;;24.40;44.60;;;;;;8331775;28;20409;-56
2021/06/13 05:07:22;;;;;;;2.20;2.00;;;24.40;44.50;;;;;;8332038;28;20025;-56
2021/06/13 05:11:23;;;;;;;3.55;2.95;;;24.40;44.60;;;;;;8332298;28;20021;-56
2021/06/13 05:15:24;;;;;;;2.50;2.30;;;24.40;44.50;;;;;;8331398;28;20041;-56
2021/06/13 05:19:25;;;;;;;4.07;2.97;;;24.30;44.40;;;;;;8331402;28;20049;-55
2021/06/13 05:23:26;;;;;;;2.70;2.40;;;24.40;44.50;;;;;;8331073;28;20037;-56
2021/06/13 05:27:26;;;;;;;2.88;2.60;;;24.40;44.30;;;;;;8330680;28;20292;-56
2021/06/13 05:31:27;;;;;;;2.67;2.45;;;24.50;44.30;;;;;;8331129;28;20474;-55
2021/06/13 05:35:27;;;;;;;2.72;2.53;;;24.50;44.30;;;;;;8330944;28;20120;-56
2021/06/13 05:39:28;;;;;;;3.08;2.78;;;24.40;44.20;;;;;;8330521;28;20030;-55
2021/06/13 05:43:28;;;;;;;3.10;2.75;;;24.50;44.30;;;;;;8330514;28;20061;-56
2021/06/13 05:47:29;;;;;;;2.83;2.60;;;24.40;44.20;;;;;;8330295;28;20034;-56
2021/06/13 05:51:30;;;;;;;3.90;2.60;;;24.50;44.20;;;;;;8330357;28;20030;-56
2021/06/13 05:55:31;;;;;;;3.03;2.33;;;24.40;44.20;;;;;;8329856;28;20033;-56
2021/06/13 05:59:32;;;;;;;3.38;2.95;;;24.40;44.10;;;;;;8330009;28;20022;-56
2021/06/13 06:03:32;;;;;;;3.83;3.05;;;24.40;44.10;;;;;;8329995;28;20467;-56
2021/06/13 06:07:33;;;;;;;2.95;2.53;;;24.40;44.10;;;;;;8330316;28;20029;-56
2021/06/13 06:11:39;;;;;;;2.50;2.30;;;24.40;44.00;;;;;;8329628;28;20105;-56
2021/06/13 06:15:41;;;;;;;3.42;2.38;;;24.50;44.10;;;;;;8329542;28;20029;-56
2021/06/13 06:19:42;;;;;;;2.65;2.45;;;24.40;44.00;;;;;;8329705;28;20115;-56
2021/06/13 06:23:43;;;;;;;2.50;2.30;;;24.40;44.00;;;;;;8329390;28;20021;-56
2021/06/13 06:27:44;;;;;;;2.75;2.13;;;24.40;44.10;;;;;;8329688;28;20417;-56
2021/06/13 06:31:44;;;;;;;;;;;24.40;44.10;;;;;;8329823;28;20482;-56
2021/06/13 06:35:45;;;;;;;3.47;2.90;;;24.40;44.60;;;;;;8328921;28;19913;-55
2021/06/13 06:39:45;;;;;;;3.10;2.70;;;24.30;44.10;;;;;;8327997;28;20051;-56
2021/06/13 06:43:46;;;;;;;2.85;2.65;;;24.30;44.00;;;;;;8329273;28;20033;-56
2021/06/13 06:47:47;;;;;;;3.05;2.75;;;24.40;44.10;;;;;;8328960;28;20083;-56
2021/06/13 06:51:47;;;;;;;3.05;2.38;;;24.40;44.00;;;;;;8328875;28;20368;-55
2021/06/13 06:55:48;;;;;;;3.53;2.80;;;24.40;44.00;;;;;;8328367;28;20068;-56
2021/06/13 06:59:48;;;;;;;3.05;2.70;;;24.30;44.00;;;;;;8328384;28;20299;-56
2021/06/13 07:03:49;;;;;;;3.08;2.60;;;24.40;44.10;;;;;;8328631;28;20052;-56
2021/06/13 07:07:49;;;;;;;3.65;3.05;;;24.30;44.10;;;;;;8328410;28;20017;-56
2021/06/13 07:11:50;;;;;;;4.57;3.33;;;24.30;44.10;;;;;;8327918;28;20112;-54
2021/06/13 07:15:50;;;;;;;3.28;2.92;;;24.30;44.10;;;;;;8328271;28;20272;-55
2021/06/13 07:19:51;;;;;;;3.13;2.65;;;24.30;44.10;;;;;;8327857;28;20164;-55
2021/06/13 07:23:52;;;;;;;3.97;3.20;;;24.30;44.00;;;;;;8327754;28;20025;-55
2021/06/13 07:27:52;;;;;;;4.80;2.83;;;24.30;44.10;;;;;;8327542;28;20057;-55
2021/06/13 07:31:53;;;;;;;3.10;2.43;;;24.30;44.10;;;;;;8327847;28;20047;-52
2021/06/13 07:35:54;;;;;;;;;;;24.30;44.10;;;;;;8328021;28;20304;-54
2021/06/13 07:39:55;;;;;;;3.83;2.78;;;24.30;44.10;;;;;;8327600;28;19905;-55
2021/06/13 07:43:55;;;;;;;3.42;3.13;;;24.30;44.10;;;;;;8326748;28;20025;-50
2021/06/13 07:47:56;;;;;;;3.00;2.70;;;24.30;44.10;;;;;;8327305;28;20025;-55
2021/06/13 07:51:58;;;;;;;3.78;3.33;;;24.30;44.10;;;;;;8326777;28;20033;-55
2021/06/13 07:55:58;;;;;;;3.72;3.30;;;24.30;44.10;;;;;;8326773;28;20030;-55
2021/06/13 07:59:59;;;;;;;3.50;2.73;;;24.30;44.10;;;;;;8326648;28;20029;-57
2021/06/13 08:03:59;;;;;;;3.95;3.22;;;24.30;44.10;;;;;;8327160;28;20128;-55
2021/06/13 08:08:05;;;;;;;3.10;2.80;;;24.40;44.10;;;;;;8327105;28;20035;-55
2021/06/13 08:12:07;;;;;;;3.72;3.03;;;24.40;44.00;;;;;;8326600;28;20467;-56
2021/06/13 08:16:08;;;;;;;3.45;2.90;;;24.40;44.00;;;;;;8326951;28;20087;-55
2021/06/13 08:20:09;;;;;;;3.25;2.90;;;24.40;43.90;;;;;;8326755;28;20367;-56
2021/06/13 08:24:10;;;;;;;;;;;24.40;43.90;;;;;;8326761;28;20030;-55
2021/06/13 08:28:10;;;;;;;3.80;3.00;;;24.50;43.90;;;;;;8326190;28;19909;-55
2021/06/13 08:32:11;;;;;;;3.45;3.15;;;24.50;43.90;;;;;;8326220;28;20468;-55
2021/06/13 08:36:11;;;;;;;3.88;3.22;;;24.50;43.90;;;;;;8326595;28;20116;-55
2021/06/13 08:40:13;;;;;;;3.25;2.90;;;24.50;43.90;;;;;;8326155;28;20030;-55
2021/06/13 08:44:13;;;;;;;4.57;2.92;;;24.50;43.90;;;;;;8326159;28;20482;-56
2021/06/13 08:48:14;;;;;;;3.83;3.42;;;24.50;43.90;;;;;;8326270;28;20029;-55
2021/06/13 08:52:16;;;;;;;4.20;3.70;;;24.50;43.80;;;;;;8326754;28;20049;-55
2021/06/13 08:56:19;;;;;;;3.47;3.15;;;24.60;43.90;;;;;;8326051;28;20028;-55
2021/06/13 09:00:26;;;;;;;3.05;2.75;;;24.60;43.80;;;;;;8327298;28;20021;-55
2021/06/13 09:04:26;;;;;;;3.35;3.05;;;24.60;43.80;;;;;;8331639;28;20033;-55
2021/06/13 09:08:35;;;;;;;3.63;3.33;;;24.60;43.80;;;;;;8331579;28;20083;-55
2021/06/13 09:12:36;;;;;;;2.88;2.58;;;24.60;43.70;;;;;;8331508;28;20034;-56
2021/06/13 09:16:39;;;;;;;;;;;24.60;43.60;;;;;;8332521;28;20103;-55
2021/06/13 09:20:43;;;;;;;4.03;3.00;;;24.60;43.60;;;;;;8331339;28;19909;-56
2021/06/13 09:24:43;;;;;;;3.90;3.25;;;24.70;43.70;;;;;;8331577;28;20068;-56
2021/06/13 09:28:49;;;;;;;2.92;2.50;;;24.60;43.60;;;;;;8331081;28;20025;-55
2021/06/13 09:33:05;;;;;;;3.30;3.00;;;24.70;43.60;;;;;;8331304;28;20046;-55
2021/06/13 09:37:06;;;;;;;3.33;3.03;;;24.70;43.70;;;;;;8330691;28;20032;-55
2021/06/13 09:41:12;;;;;;;3.03;2.72;;;24.70;43.60;;;;;;8330880;28;20034;-56
2021/06/13 09:45:17;;;;;;;2.83;2.60;;;24.70;43.70;;;;;;8330791;28;20036;-55
2021/06/13 09:49:19;;;;;;;2.95;2.63;;;24.80;43.70;;;;;;8330376;28;20412;-56
2021/06/13 09:53:20;;;;;;;3.03;2.72;;;24.70;43.50;;;;;;8330415;28;20053;-56
2021/06/13 09:57:21;;;;;;;3.78;3.20;;;24.70;43.60;;;;;;8330525;28;20032;-56
2021/06/13 10:01:26;;;;;;;3.83;3.00;;;24.80;43.60;;;;;;8329944;28;20482;-55
2021/06/13 10:05:26;;;;;;;3.35;3.05;;;24.80;43.60;;;;;;8328216;28;20046;-49
2021/06/13 10:09:39;;;;;;;3.53;2.87;;;24.80;43.30;;;;;;8332399;28;20386;-49
2021/06/13 10:13:51;;;;;;;4.25;3.38;;;24.80;43.30;;;;;;8327219;28;20292;-49
2021/06/13 10:18:08;;;;;;;3.90;3.13;;;24.80;43.30;;;;;;8327736;28;20053;-48
2021/06/13 10:22:10;;;;;;;5.10;3.47;;;24.80;43.20;;;;;;8327004;28;20211;-50
2021/06/13 10:26:11;;;;;;;4.60;3.80;;;24.80;42.90;;;;;;8326924;28;20014;-52
2021/06/13 10:30:12;;;;;;;3.97;3.58;;;24.90;43.30;;;;;;8326657;28;20026;-46
2021/06/13 10:34:17;;;;;;;5.38;3.90;;;24.90;42.80;;;;;;8328055;28;20394;-51
2021/06/13 10:38:18;;;;;;;4.85;4.05;;;24.90;42.80;;;;;;8326889;28;20075;-50
2021/06/13 10:42:19;;;;;;;5.03;4.10;;;25.00;43.10;;;;;;8326594;28;20017;-49
2021/06/13 10:46:20;;;;;;;;;;;25.00;42.80;;;;;;8328482;28;20097;-56
2021/06/13 10:50:33;;;;;;;5.50;4.30;;;25.10;43.10;;;;;;8328942;28;19912;-56
2021/06/13 10:54:49;;;;;;;7.65;4.43;;;25.10;43.30;;;;;;8328297;28;20508;-53
2021/06/13 10:58:52;;;;;;;7.13;4.30;;;25.20;43.40;;;;;;8328518;28;20037;-53
2021/06/13 11:02:59;;;;;;;9.55;4.28;;;25.30;43.40;;;;;;8339817;28;20493;-52
2021/06/13 11:07:00;;;;;;;6.28;4.13;;;25.30;43.60;;;;;;8337065;28;20116;-48
2021/06/13 11:11:00;;;;;;;4.63;4.03;;;25.40;43.30;;;;;;8327866;28;20465;-50
2021/06/13 11:15:01;;;;;;;5.75;4.43;;;25.40;43.10;;;;;;8327625;28;20361;-50
2021/06/13 11:19:34;;;;;;;9.80;4.22;;;25.40;42.30;;;;;;8327769;28;20031;-50
2021/06/13 11:23:38;;;;;;;5.88;4.18;;;25.40;42.30;;;;;;8327430;28;20410;-48
2021/06/13 11:28:19;;;;;;;7.40;4.18;;;25.50;42.50;;;;;;8327752;28;20022;-49
2021/06/13 11:32:47;;;;;;;5.53;4.53;;;25.50;42.60;;;;;;8327071;28;20069;-49
2021/06/13 11:36:50;;;;;;;6.05;4.20;;;25.50;42.30;;;;;;8323976;28;20029;-48
2021/06/13 11:40:56;;;;;;;7.22;3.97;;;25.60;42.70;;;;;;8327580;28;20091;-48
2021/06/13 11:44:57;;;;;;;5.85;4.68;;;25.60;42.60;;;;;;8327263;28;20069;-50
2021/06/13 11:48:58;;;;;;;5.85;4.90;;;25.60;41.60;;;;;;8327090;28;20025;-48
2021/06/13 11:53:00;;;;;;;5.25;4.07;;;25.60;41.10;;;;;;8327090;28;20038;-53
2021/06/13 11:57:04;;;;;;;5.57;4.10;;;25.60;41.60;;;;;;8326760;28;20032;-50
2021/06/13 12:01:04;;;;;;;6.18;5.00;;;25.70;41.80;;;;;;8327667;28;20461;-54
2021/06/13 12:05:07;;;;;;;5.32;4.38;;;25.70;41.30;;;;;;8327734;28;20034;-50
2021/06/13 12:09:15;;;;;;;6.13;3.92;;;25.60;40.60;;;;;;8326779;28;20465;-54
2021/06/13 12:13:16;;;;;;;8.65;4.25;;;25.70;39.40;;;;;;8326621;28;20037;-49
2021/06/13 12:17:21;;;;;;;5.60;4.10;;;25.70;38.90;;;;;;8326485;28;20026;-49
2021/06/13 12:21:28;;;;;;;8.80;5.22;;;25.70;39.20;;;;;;8327033;28;20032;-53
2021/06/13 12:30:06;;;;;;;7.15;4.90;;;25.90;37.90;;;;;;8326674;28;20086;-50
2021/06/13 12:34:17;;;;;;;5.03;4.20;;;25.90;40.00;;;;;;8326134;28;20406;-53
2021/06/13 12:38:23;;;;;;;6.20;4.40;;;25.90;38.30;;;;;;8332752;28;20083;-51
2021/06/13 12:42:26;;;;;;;7.47;4.40;;;25.90;39.80;;;;;;8332971;28;20116;-48
2021/06/13 12:46:37;;;;;;;4.47;3.80;;;25.90;39.50;;;;;;8332672;28;20466;-50
2021/06/13 12:50:43;;;;;;;6.10;4.28;;;26.00;37.60;;;;;;8332695;28;20052;-51
2021/06/13 12:54:53;;;;;;;9.93;4.13;;;26.00;37.90;;;;;;8332135;28;20038;-49
2021/06/13 12:58:54;;;;;;;7.05;4.43;;;26.00;37.40;;;;;;8330685;28;20022;-52
2021/06/13 13:03:11;;;;;;;5.00;3.70;;;26.10;38.20;;;;;;8332347;28;20382;-50
2021/06/13 13:07:12;;;;;;;4.82;3.40;;;26.10;37.30;;;;;;8332089;28;20029;-49
2021/06/13 13:11:31;;;;;;;4.65;3.90;;;26.10;37.80;;;;;;8331733;28;20064;-50
2021/06/13 13:15:33;;;;;;;4.55;3.63;;;26.10;35.90;;;;;;8331363;28;20494;-54
2021/06/13 13:19:35;;;;;;;5.05;3.95;;;26.20;38.00;;;;;;8331625;28;20044;-52
2021/06/13 13:23:41;;;;;;;4.18;3.75;;;26.20;37.20;;;;;;8331760;28;20049;-51
2021/06/13 13:27:42;;;;;;;5.22;3.65;;;26.20;38.00;;;;;;8331332;28;20061;-53
2021/06/13 13:31:43;;;;;;;6.28;3.72;;;26.20;37.00;;;;;;8331123;28;20548;-53
2021/06/13 13:35:44;;;;;;;4.47;3.63;;;26.20;36.40;;;;;;8330639;28;20038;-54
2021/06/13 13:39:47;;;;;;;;;;;26.20;36.10;;;;;;8337008;28;20437;-52
2021/06/13 13:44:00;;;;;;;4.05;3.55;;;26.20;36.20;;;;;;8330575;28;20313;-50
2021/06/13 13:48:15;;;;;;;6.43;3.38;;;26.20;35.40;;;;;;8342381;28;20100;-49
2021/06/13 13:52:21;;;;;;;6.47;4.28;;;26.30;35.10;;;;;;8348944;28;20028;-53
2021/06/13 13:56:24;;;;;;;4.18;3.10;;;26.30;36.90;;;;;;8342542;28;20029;-48
2021/06/13 14:00:24;;;;;;;4.28;3.22;;;26.30;34.20;;;;;;8330961;28;20032;-52
2021/06/13 14:04:25;;;;;;;5.45;3.35;;;26.40;36.50;;;;;;8330358;28;20044;-51
2021/06/13 14:08:26;;;;;;;;;;;26.40;37.30;;;;;;8330584;28;20059;-48
2021/06/13 14:12:27;;;;;;;6.03;3.47;;;26.40;34.00;;;;;;8330169;28;19909;-48
2021/06/13 14:16:27;;;;;;;;;;;26.40;35.40;;;;;;8330417;28;20272;-49
2021/06/13 14:20:28;;;;;;;8.23;3.90;;;26.50;33.80;;;;;;8330101;28;19905;-55
2021/06/13 14:24:28;;;;;;;;;;;26.50;36.00;;;;;;8329749;28;20029;-54
2021/06/13 14:28:29;;;;;;;4.27;2.50;;;26.50;34.50;;;;;;8329383;28;19983;-50
2021/06/13 14:32:30;;;;;;;;;;;26.50;32.10;;;;;;8329473;28;20381;-51
2021/06/13 14:36:31;;;;;;;8.83;3.10;;;26.50;36.90;;;;;;8315282;28;20366;-50
2021/06/13 14:40:31;;;;;;;4.95;2.63;;;26.50;36.30;;;;;;8296460;28;20440;-51
2021/06/13 14:44:32;;;;;;;;;;;26.50;31.20;;;;;;8305291;28;20019;-51
2021/06/13 14:48:32;;;;;;;8.43;4.17;;;26.50;33.00;;;;;;8322642;28;19916;-50
2021/06/13 14:52:33;;;;;;;;;;;26.50;29.00;;;;;;8323755;28;20073;-50
2021/06/13 14:56:34;;;;;;;61.47;15.10;;;26.50;31.50;;;;;;8326698;28;19909;-48
2021/06/13 15:00:34;;;;;;;;;;;26.50;29.60;;;;;;8344440;28;20061;-51
2021/06/13 15:04:35;;;;;;;9.67;4.23;;;26.50;29.50;;;;;;8349770;28;20479;-47
2021/06/13 15:08:38;;;;;;;;;;;26.60;29.90;;;;;;8346583;28;20021;-49
2021/06/13 15:12:38;;;;;;;6.85;3.45;;;26.60;33.50;;;;;;8357183;28;20015;-46
2021/06/13 15:16:39;;;;;;;;;;;26.60;30.70;;;;;;8359178;28;20025;-47
2021/06/13 15:20:44;;;;;;;11.80;4.20;;;26.60;30.90;;;;;;8348984;28;19920;-47
2021/06/13 15:24:44;;;;;;;9.40;3.75;;;26.60;33.90;;;;;;8328767;28;20036;-47
2021/06/13 15:28:45;;;;;;;;;;;26.60;32.80;;;;;;8335252;28;20481;-47
2021/06/13 15:32:45;;;;;;;4.93;2.57;;;26.60;31.70;;;;;;8361909;28;19971;-48
2021/06/13 15:36:47;;;;;;;;;;;26.60;30.40;;;;;;8363008;28;20021;-48
2021/06/13 15:40:47;;;;;;;5.23;2.83;;;26.70;30.90;;;;;;8362560;28;19905;-47
2021/06/13 15:44:48;;;;;;;;;;;26.70;30.00;;;;;;8336470;28;20175;-51
2021/06/13 15:48:49;;;;;;;6.30;2.70;;;26.70;30.00;;;;;;8348633;28;19915;-51
2021/06/13 15:52:50;;;;;;;;;;;26.70;31.30;;;;;;8362258;28;20037;-47
2021/06/13 15:56:51;;;;;;;5.55;2.97;;;26.70;33.60;;;;;;8359641;28;20285;-49
2021/06/13 16:00:51;;;;;;;4.22;3.00;;;26.70;31.10;;;;;;8358347;28;20076;-49
2021/06/13 16:04:52;;;;;;;;;;;26.70;32.30;;;;;;8341626;28;20060;-52
2021/06/13 16:08:53;;;;;;;5.60;3.60;;;26.60;31.50;;;;;;8330455;28;19952;-50
2021/06/13 16:12:53;;;;;;;;;;;26.70;31.80;;;;;;8335450;28;20045;-52
2021/06/13 16:16:55;;;;;;;3.67;2.70;;;26.60;32.30;;;;;;8336824;28;19905;-54
2021/06/13 16:20:55;;;;;;;4.57;3.20;;;26.60;33.90;;;;;;8336480;28;20038;-55
2021/06/13 16:24:56;;;;;;;;;;;26.70;32.80;;;;;;8335865;28;20477;-54
2021/06/13 16:28:56;;;;;;;4.53;3.50;;;26.60;33.50;;;;;;8335397;28;19912;-54
2021/06/13 16:32:57;;;;;;;;;;;26.60;33.90;;;;;;8336013;28;20060;-49
2021/06/13 16:36:59;;;;;;;6.43;3.30;;;26.70;33.70;;;;;;8336129;28;20121;-47
2021/06/13 16:41:00;;;;;;;4.03;3.30;;;26.60;33.60;;;;;;8335796;28;20108;-47
2021/06/13 16:45:01;;;;;;;;;;;26.60;33.80;;;;;;8335774;28;20025;-48
2021/06/13 16:49:02;;;;;;;6.43;4.03;;;26.60;33.80;;;;;;8335421;28;20317;-48
2021/06/13 16:53:03;;;;;;;9.55;4.95;;;26.50;34.00;;;;;;8334997;28;20115;-49
2021/06/13 16:57:06;;;;;;;;;;;26.60;34.20;;;;;;8335466;28;20374;-48
2021/06/13 17:01:06;;;;;;;7.53;4.85;;;26.60;34.70;;;;;;8330769;28;20382;-49
2021/06/13 17:05:07;;;;;;;;;;;26.60;35.10;;;;;;8302969;28;20026;-47
2021/06/13 17:09:08;;;;;;;6.03;3.77;;;26.60;35.40;;;;;;8302628;28;20338;-51
2021/06/13 17:13:08;;;;;;;;;;;26.50;35.60;;;;;;8301772;28;20069;-51
2021/06/13 17:17:10;;;;;;;4.40;3.73;;;26.60;35.80;;;;;;8301597;28;19905;-48
2021/06/13 17:21:11;;;;;;;4.95;3.92;;;26.50;35.60;;;;;;8300571;28;20034;-52
2021/06/13 17:25:16;;;;;;;;;;;26.50;35.70;;;;;;8302278;28;20033;-51
2021/06/13 17:29:17;;;;;;;5.18;4.20;;;26.60;35.80;;;;;;8301264;28;19912;-47
2021/06/13 17:33:18;;;;;;;;;;;26.50;36.10;;;;;;8301867;28;20379;-48
2021/06/13 17:37:24;;;;;;;5.03;3.97;;;26.50;35.90;;;;;;8301190;28;19905;-50
2021/06/13 17:41:48;;;;;;;4.45;3.75;;;26.50;35.80;;;;;;8300790;28;20025;-48
2021/06/13 17:45:49;;;;;;;6.30;3.60;;;26.50;36.20;;;;;;8301111;28;20025;-51
2021/06/13 17:49:49;;;;;;;;;;;26.50;36.40;;;;;;8301466;28;20121;-49
2021/06/13 17:53:51;;;;;;;5.50;3.80;;;26.50;36.70;;;;;;8300406;28;19963;-49
2021/06/13 17:57:53;;;;;;;5.82;4.15;;;26.50;36.20;;;;;;8320838;28;20083;-49
2021/06/13 18:01:53;;;;;;;6.65;3.95;;;26.50;36.60;;;;;;8333299;28;20028;-49
2021/06/13 18:05:55;;;;;;;;;;;26.50;36.90;;;;;;8333737;28;20018;-49
2021/06/13 18:09:55;;;;;;;6.30;3.95;;;26.50;36.60;;;;;;8332784;28;19909;-51
2021/06/13 18:13:56;;;;;;;;;;;26.50;37.40;;;;;;8333097;28;20395;-49
2021/06/13 18:17:56;;;;;;;5.70;3.70;;;26.50;36.60;;;;;;8332263;28;20415;-52
2021/06/13 18:21:59;;;;;;;;;;;26.50;37.50;;;;;;8332704;28;20026;-53
2021/06/13 18:26:01;;;;;;;4.97;3.70;;;26.50;37.40;;;;;;8332621;28;19916;-50
2021/06/13 18:30:04;;;;;;;4.63;3.83;;;26.40;37.20;;;;;;8332610;28;20104;-50
2021/06/13 18:34:04;;;;;;;4.07;3.25;;;26.50;37.70;;;;;;8330456;28;20040;-50
2021/06/13 18:38:05;;;;;;;5.53;3.80;;;26.40;37.80;;;;;;8332313;28;20526;-49
2021/06/13 18:42:06;;;;;;;;;;;26.40;37.60;;;;;;8331769;28;20045;-50
2021/06/13 18:46:07;;;;;;;4.93;3.83;;;26.40;37.70;;;;;;8331628;28;20276;-48
2021/06/13 18:50:07;;;;;;;;;;;26.50;37.90;;;;;;8331904;28;20026;-51
2021/06/13 18:54:08;;;;;;;5.07;3.90;;;26.40;38.30;;;;;;8331108;28;19916;-47
2021/06/13 18:58:09;;;;;;;;;;;26.40;38.10;;;;;;8310833;28;20022;-48
2021/06/13 19:02:10;;;;;;;6.20;3.73;;;26.30;37.90;;;;;;8330123;28;20404;-50
2021/06/13 19:06:11;;;;;;;4.70;3.50;;;26.20;37.80;;;;;;8330648;28;20087;-51
2021/06/13 19:10:12;;;;;;;6.60;3.20;;;26.20;36.40;;;;;;8343144;28;20026;-56
2021/06/13 19:14:14;;;;;;;3.47;3.17;;;26.10;35.80;;;;;;8299707;28;20053;-56
2021/06/13 19:18:15;;;;;;;5.07;3.33;;;26.10;37.40;;;;;;8297604;28;20022;-56
2021/06/13 19:22:16;;;;;;;;;;;26.10;37.70;;;;;;8298415;28;20030;-56
2021/06/13 19:26:18;;;;;;;3.70;3.05;;;26.10;37.50;;;;;;8298273;28;20343;-55
2021/06/13 19:30:25;;;;;;;7.20;3.03;;;26.10;37.30;;;;;;8297685;28;20061;-56
2021/06/13 19:34:25;;;;;;;3.65;2.97;;;26.20;37.20;;;;;;8297903;28;20517;-55
2021/06/13 19:38:26;;;;;;;3.95;2.90;;;26.20;37.30;;;;;;8297498;28;20022;-55
2021/06/13 19:42:26;;;;;;;;;;;26.20;37.20;;;;;;8297789;28;20037;-55
2021/06/13 19:46:27;;;;;;;4.53;3.13;;;26.20;37.30;;;;;;8297241;28;20278;-56
2021/06/13 19:50:29;;;;;;;;;;;26.20;37.30;;;;;;8303251;28;20017;-56
2021/06/13 19:54:31;;;;;;;3.70;2.95;;;26.20;37.30;;;;;;8329397;28;19967;-56
2021/06/13 19:58:31;;;;;;;4.03;2.53;;;26.20;37.40;;;;;;8329675;28;20417;-56
2021/06/13 20:02:32;;;;;;;3.75;2.45;;;26.20;37.40;;;;;;8330012;28;20091;-56
2021/06/13 20:06:33;;;;;;;;;;;26.20;37.40;;;;;;8330474;28;20060;-57
2021/06/13 20:10:34;;;;;;;3.38;2.65;;;26.10;37.40;;;;;;8329955;28;19913;-56
2021/06/13 20:14:34;;;;;;;;;;;26.10;37.50;;;;;;8330332;28;20489;-55
2021/06/13 20:18:36;;;;;;;2.90;2.60;;;26.10;37.50;;;;;;8328379;28;19913;-56
2021/06/13 20:22:37;;;;;;;5.18;2.80;;;26.10;37.50;;;;;;8329817;28;20426;-57
2021/06/13 20:26:38;;;;;;;3.88;2.70;;;26.10;37.60;;;;;;8329760;28;20014;-57
2021/06/13 20:30:41;;;;;;;;;;;26.10;37.40;;;;;;8329907;28;20079;-56
2021/06/13 20:34:41;;;;;;;2.88;2.50;;;26.10;37.60;;;;;;8329024;28;19913;-58
2021/06/13 20:38:42;;;;;;;4.00;2.60;;;26.00;37.50;;;;;;8329015;28;20037;-56
2021/06/13 20:42:44;;;;;;;3.42;2.63;;;26.00;37.60;;;;;;8329344;28;20135;-56
2021/06/13 20:46:45;;;;;;;3.10;2.75;;;26.10;37.70;;;;;;8329056;28;20111;-57
2021/06/13 20:50:46;;;;;;;3.28;2.97;;;26.00;37.60;;;;;;8328858;28;20022;-56
2021/06/13 20:54:48;;;;;;;3.00;2.50;;;26.00;37.60;;;;;;8328855;28;20045;-56
2021/06/13 20:58:50;;;;;;;2.85;2.30;;;26.00;37.60;;;;;;8334106;28;20022;-55
2021/06/13 21:02:50;;;;;;;2.70;2.50;;;26.00;37.70;;;;;;8334964;28;20434;-57
2021/06/13 21:06:51;;;;;;;3.25;2.50;;;26.00;37.50;;;;;;8335328;28;20033;-56
2021/06/13 21:10:51;;;;;;;;;;;26.00;37.70;;;;;;8335042;28;20117;-56
2021/06/13 21:14:52;;;;;;;2.53;2.28;;;26.00;37.30;;;;;;8334773;28;19920;-55
2021/06/13 21:18:52;;;;;;;;;;;25.90;37.80;;;;;;8334849;28;20033;-56
2021/06/13 21:22:54;;;;;;;4.17;2.70;;;25.90;37.50;;;;;;8333920;28;19905;-55
2021/06/13 21:26:55;;;;;;;2.90;2.53;;;25.90;37.70;;;;;;8334452;28;20056;-56
2021/06/13 21:30:55;;;;;;;2.90;2.10;;;25.90;37.60;;;;;;8334298;28;20517;-55